Time;durP1;ratioP1;P1;durP2;ratioP2;P2;SDS_P1;SDS_P2;PMS_P1;PMS_P2;Temp;Humidity;BMP_temperature;BMP_pressure;BME280_temperature;BME280_humidity;BME280_pressure;Samples;Min_cycle;Max_cycle;Signal;HPM_P1;HPM_P2
2021/07/26 00:00:39;;;;;;;;;11.75;9.00;;;;;;;;5078164;27;45437;-71
2021/07/26 00:03:04;;;;;;;;;9.50;9.25;;;;;;;;5076302;27;46904;-71
2021/07/26 00:05:30;;;;;;;;;10.25;8.50;;;;;;;;5078970;27;45389;-70
2021/07/26 00:07:55;;;;;;;;;8.75;7.50;;;;;;;;5080208;27;45477;-70
2021/07/26 00:10:20;;;;;;;;;10.75;8.25;;;;;;;;5077893;27;45440;-70
2021/07/26 00:12:45;;;;;;;;;8.75;8.25;;;;;;;;5077751;27;47097;-71
2021/07/26 00:15:11;;;;;;;;;10.75;8.50;;;;;;;;5075880;27;45524;-70
2021/07/26 00:17:36;;;;;;;;;8.75;6.25;;;;;;;;5077357;27;45305;-70
2021/07/26 00:20:02;;;;;;;;;7.75;7.75;;;;;;;;5080574;27;45516;-71
2021/07/26 00:22:27;;;;;;;;;8.00;7.50;;;;;;;;5078972;27;47579;-70
2021/07/26 00:24:52;;;;;;;;;8.25;7.00;;;;;;;;5078202;27;45452;-70
2021/07/26 00:27:18;;;;;;;;;8.00;8.00;;;;;;;;5078048;27;45448;-69
2021/07/26 00:29:43;;;;;;;;;12.25;10.25;;;;;;;;5075582;27;45620;-71
2021/07/26 00:32:08;;;;;;;;;11.00;10.00;;;;;;;;5081052;27;45554;-70
2021/07/26 00:34:33;;;;;;;;;11.75;10.25;;;;;;;;5078686;27;45322;-69
2021/07/26 00:36:59;;;;;;;;;12.50;11.50;;;;;;;;5078870;27;45370;-70
2021/07/26 00:39:26;;;;;;;;;10.50;10.25;;;;;;;;5078690;27;45469;-69
2021/07/26 00:41:51;;;;;;;;;13.75;12.75;;;;;;;;5057999;28;46381;-70
2021/07/26 00:44:18;;;;;;;;;11.50;11.50;;;;;;;;5080483;27;45508;-70
2021/07/26 00:46:44;;;;;;;;;11.00;11.00;;;;;;;;5078632;27;45430;-69
2021/07/26 00:49:10;;;;;;;;;12.25;12.25;;;;;;;;5076863;27;45520;-71
2021/07/26 00:51:37;;;;;;;;;13.25;11.25;;;;;;;;5076963;27;46059;-71
2021/07/26 00:54:02;;;;;;;;;14.25;13.50;;;;;;;;5075408;27;45302;-71
2021/07/26 00:56:28;;;;;;;;;15.50;14.00;;;;;;;;5078832;27;45282;-70
2021/07/26 00:58:53;;;;;;;;;17.25;17.25;;;;;;;;5079345;27;45290;-71
2021/07/26 01:01:18;;;;;;;;;19.25;15.00;;;;;;;;5078403;27;46103;-71
2021/07/26 01:03:44;;;;;;;;;20.75;18.50;;;;;;;;5077947;27;45512;-71
2021/07/26 01:06:10;;;;;;;;;27.00;26.00;;;;;;;;5076472;27;45519;-69
2021/07/26 01:08:36;;;;;;;;;23.75;22.00;;;;;;;;5075143;27;45351;-70
2021/07/26 01:11:02;;;;;;;;;21.75;17.75;;;;;;;;5079595;27;46307;-70
2021/07/26 01:13:28;;;;;;;;;15.50;15.00;;;;;;;;5078407;27;45366;-69
2021/07/26 01:15:53;;;;;;;;;20.25;17.25;;;;;;;;5078308;27;45405;-70
2021/07/26 01:18:20;;;;;;;;;15.25;15.25;;;;;;;;5077225;27;45351;-69
2021/07/26 01:20:46;;;;;;;;;14.75;14.75;;;;;;;;5074543;27;46363;-70
2021/07/26 01:23:11;;;;;;;;;17.50;14.25;;;;;;;;5080295;27;45408;-71
2021/07/26 01:25:37;;;;;;;;;20.00;17.25;;;;;;;;5078381;27;45472;-69
2021/07/26 01:28:03;;;;;;;;;17.25;16.00;;;;;;;;5076798;27;45407;-70
2021/07/26 01:30:28;;;;;;;;;20.25;18.00;;;;;;;;5075868;27;46518;-69
2021/07/26 01:32:53;;;;;;;;;16.00;13.75;;;;;;;;5073875;28;45362;-70
2021/07/26 01:35:18;;;;;;;;;22.25;20.00;;;;;;;;5080134;27;45357;-70
2021/07/26 01:37:43;;;;;;;;;19.50;19.50;;;;;;;;5078262;27;45373;-70
2021/07/26 01:40:09;;;;;;;;;16.25;13.25;;;;;;;;5077651;27;46401;-70
2021/07/26 01:42:40;;;;;;;;;17.50;16.00;;;;;;;;5077878;27;45379;-70
2021/07/26 01:45:05;;;;;;;;;18.00;15.25;;;;;;;;5073172;27;45720;-70
2021/07/26 01:47:31;;;;;;;;;16.00;14.50;;;;;;;;5077855;27;45328;-70
2021/07/26 01:50:01;;;;;;;;;11.50;11.50;;;;;;;;5078620;27;45379;-70
2021/07/26 01:52:26;;;;;;;;;15.25;15.00;;;;;;;;5077835;27;45364;-70
2021/07/26 01:54:52;;;;;;;;;13.50;12.50;;;;;;;;5077735;27;45387;-70
2021/07/26 01:57:17;;;;;;;;;13.50;13.50;;;;;;;;5076516;27;45523;-69
2021/07/26 01:59:42;;;;;;;;;17.00;16.25;;;;;;;;5074034;27;45755;-69
2021/07/26 02:02:08;;;;;;;;;18.75;13.75;;;;;;;;5079682;27;45710;-69
2021/07/26 02:04:33;;;;;;;;;15.25;14.25;;;;;;;;5077699;27;45381;-70
2021/07/26 02:06:58;;;;;;;;;15.25;14.00;;;;;;;;5076449;27;47123;-70
2021/07/26 02:09:23;;;;;;;;;12.00;12.00;;;;;;;;5075591;27;46626;-70
2021/07/26 02:11:48;;;;;;;;;13.50;13.50;;;;;;;;5073719;27;45423;-70
2021/07/26 02:14:14;;;;;;;;;17.25;14.75;;;;;;;;5079240;27;45348;-71
2021/07/26 02:16:39;;;;;;;;;14.25;13.50;;;;;;;;5077364;27;45422;-70
2021/07/26 02:19:05;;;;;;;;;14.00;13.75;;;;;;;;5077090;27;47017;-69
2021/07/26 02:21:31;;;;;;;;;16.25;14.00;;;;;;;;5077250;27;45389;-69
2021/07/26 02:23:56;;;;;;;;;16.00;15.25;;;;;;;;5073407;27;45350;-70
2021/07/26 02:26:21;;;;;;;;;15.75;13.75;;;;;;;;5079312;27;45452;-69
2021/07/26 02:28:46;;;;;;;;;17.25;15.00;;;;;;;;5076748;27;46207;-70
2021/07/26 02:31:11;;;;;;;;;15.75;15.75;;;;;;;;5077124;27;45483;-70
2021/07/26 02:33:37;;;;;;;;;14.25;14.25;;;;;;;;5077351;27;45434;-71
2021/07/26 02:36:02;;;;;;;;;16.75;16.75;;;;;;;;5074140;27;45511;-69
2021/07/26 02:38:27;;;;;;;;;17.50;16.25;;;;;;;;5076093;27;46433;-70
2021/07/26 02:40:53;;;;;;;;;15.00;12.50;;;;;;;;5077653;27;45329;-70
2021/07/26 02:43:18;;;;;;;;;17.50;15.50;;;;;;;;5076996;27;45507;-70
2021/07/26 02:45:43;;;;;;;;;17.00;16.00;;;;;;;;5075836;27;45485;-70
2021/07/26 02:48:10;;;;;;;;;12.50;11.50;;;;;;;;5075691;27;46848;-70
2021/07/26 02:50:35;;;;;;;;;17.25;14.75;;;;;;;;5078634;27;45571;-69
2021/07/26 02:53:00;;;;;;;;;13.50;9.75;;;;;;;;5082011;27;45408;-71
2021/07/26 02:55:27;;;;;;;;;15.00;15.00;;;;;;;;5080288;27;45346;-70
2021/07/26 02:57:53;;;;;;;;;14.75;12.75;;;;;;;;5079743;27;47161;-70
2021/07/26 03:00:19;;;;;;;;;19.25;16.50;;;;;;;;5079182;27;45441;-70
2021/07/26 03:02:44;;;;;;;;;13.00;13.00;;;;;;;;5076815;27;45368;-71
2021/07/26 03:05:09;;;;;;;;;13.00;13.00;;;;;;;;5082380;27;45308;-71
2021/07/26 03:07:34;;;;;;;;;14.50;14.50;;;;;;;;5080280;27;45971;-71
2021/07/26 03:09:59;;;;;;;;;15.00;12.00;;;;;;;;5080129;27;45333;-70
2021/07/26 03:12:25;;;;;;;;;18.25;14.50;;;;;;;;5079733;27;45327;-71
2021/07/26 03:14:50;;;;;;;;;12.75;12.50;;;;;;;;5075814;27;45313;-71
2021/07/26 03:17:15;;;;;;;;;18.75;17.25;;;;;;;;5081992;27;45437;-70
2021/07/26 03:19:40;;;;;;;;;17.25;15.75;;;;;;;;5079820;27;45741;-71
2021/07/26 03:22:24;;;;;;;;;21.50;18.00;;;;;;;;5079949;27;45473;-71
2021/07/26 03:24:49;;;;;;;;;19.25;15.75;;;;;;;;5078260;27;45343;-71
2021/07/26 03:27:14;;;;;;;;;18.00;18.00;;;;;;;;5075823;27;46270;-71
2021/07/26 03:29:40;;;;;;;;;18.00;15.75;;;;;;;;5076277;27;45507;-71
2021/07/26 03:32:05;;;;;;;;;19.25;17.50;;;;;;;;5114844;27;45563;-70
2021/07/26 03:34:30;;;;;;;;;21.00;18.25;;;;;;;;5079732;27;45290;-71
2021/07/26 03:36:55;;;;;;;;;22.75;19.50;;;;;;;;5079277;27;47646;-70
2021/07/26 03:39:20;;;;;;;;;20.75;18.00;;;;;;;;5078794;27;45503;-70
2021/07/26 03:41:46;;;;;;;;;16.00;15.50;;;;;;;;5075692;27;45598;-70
2021/07/26 03:44:11;;;;;;;;;24.25;21.00;;;;;;;;5081399;27;45444;-70
2021/07/26 03:46:36;;;;;;;;;21.00;20.25;;;;;;;;5079340;27;47254;-69
2021/07/26 03:49:01;;;;;;;;;24.25;20.25;;;;;;;;5079542;27;45498;-71
2021/07/26 03:51:26;;;;;;;;;22.00;20.00;;;;;;;;5079596;27;45461;-71
2021/07/26 03:53:53;;;;;;;;;19.25;19.00;;;;;;;;5058906;28;45294;-71
2021/07/26 03:56:18;;;;;;;;;22.75;18.75;;;;;;;;5080601;27;46153;-70
2021/07/26 03:58:43;;;;;;;;;18.75;15.25;;;;;;;;5078957;27;45481;-71
2021/07/26 04:01:08;;;;;;;;;16.75;16.00;;;;;;;;5079486;27;45356;-70
2021/07/26 04:03:33;;;;;;;;;18.00;14.75;;;;;;;;5078018;27;45432;-71
2021/07/26 04:06:06;;;;;;;;;15.75;14.25;;;;;;;;5073883;27;46476;-71
2021/07/26 04:08:35;;;;;;;;;18.75;14.25;;;;;;;;5078430;27;45545;-71
2021/07/26 04:11:06;;;;;;;;;18.00;17.50;;;;;;;;5079794;27;45341;-70
2021/07/26 04:13:34;;;;;;;;;17.00;15.00;;;;;;;;5078866;27;45546;-71
2021/07/26 04:15:59;;;;;;;;;17.50;16.00;;;;;;;;5078982;27;46054;-71
2021/07/26 04:18:25;;;;;;;;;22.00;17.50;;;;;;;;5076970;27;45436;-71
2021/07/26 04:20:51;;;;;;;;;18.25;17.50;;;;;;;;5074241;27;45337;-70
2021/07/26 04:23:17;;;;;;;;;18.75;17.00;;;;;;;;5080979;27;45317;-71
2021/07/26 04:25:42;;;;;;;;;16.75;16.00;;;;;;;;5078133;27;47479;-71
2021/07/26 04:28:07;;;;;;;;;15.50;13.25;;;;;;;;5078395;27;45468;-71
2021/07/26 04:30:32;;;;;;;;;16.50;16.25;;;;;;;;5078039;27;45290;-71
2021/07/26 04:32:58;;;;;;;;;14.50;13.75;;;;;;;;5074473;27;45249;-71
2021/07/26 04:35:23;;;;;;;;;16.50;15.25;;;;;;;;5079970;27;45482;-71
2021/07/26 04:37:48;;;;;;;;;18.00;15.00;;;;;;;;5077868;27;45366;-71
2021/07/26 04:40:13;;;;;;;;;15.00;13.00;;;;;;;;5077773;27;45547;-70
2021/07/26 04:42:40;;;;;;;;;14.50;14.00;;;;;;;;5076522;27;47122;-70
2021/07/26 04:45:06;;;;;;;;;17.00;15.50;;;;;;;;5073465;27;46448;-70
2021/07/26 04:47:31;;;;;;;;;14.00;12.75;;;;;;;;5077585;27;45355;-70
2021/07/26 04:49:57;;;;;;;;;17.75;13.75;;;;;;;;5078476;27;45326;-70
2021/07/26 04:52:22;;;;;;;;;13.25;13.25;;;;;;;;5075845;27;45647;-70
2021/07/26 04:54:47;;;;;;;;;17.25;16.00;;;;;;;;5073824;27;46233;-70
2021/07/26 04:57:12;;;;;;;;;10.75;9.25;;;;;;;;5073942;27;45468;-70
2021/07/26 04:59:37;;;;;;;;;15.25;13.25;;;;;;;;5073773;27;45439;-70
2021/07/26 05:02:03;;;;;;;;;14.25;12.75;;;;;;;;5089243;27;45496;-70
2021/07/26 05:04:28;;;;;;;;;16.00;16.00;;;;;;;;5088938;27;46382;-70
2021/07/26 05:07:02;;;;;;;;;13.50;11.75;;;;;;;;5083156;27;45607;-71
2021/07/26 05:09:28;;;;;;;;;13.25;13.25;;;;;;;;5071564;27;45298;-70
2021/07/26 05:11:54;;;;;;;;;15.75;14.50;;;;;;;;5087810;27;45528;-71
2021/07/26 05:14:19;;;;;;;;;17.50;14.00;;;;;;;;5079037;27;46286;-72
2021/07/26 05:16:45;;;;;;;;;15.75;13.00;;;;;;;;5077369;27;45345;-71
2021/07/26 05:19:10;;;;;;;;;13.50;13.50;;;;;;;;5077373;27;45519;-71
2021/07/26 05:21:35;;;;;;;;;16.00;13.50;;;;;;;;5076172;27;45461;-70
2021/07/26 05:24:01;;;;;;;;;16.25;16.25;;;;;;;;5070647;27;46082;-71
2021/07/26 05:26:26;;;;;;;;;13.00;13.00;;;;;;;;5078256;27;45348;-70
2021/07/26 05:28:52;;;;;;;;;15.50;13.00;;;;;;;;5077270;27;45534;-71
2021/07/26 05:31:17;;;;;;;;;11.50;9.25;;;;;;;;5077292;27;45314;-71
2021/07/26 05:33:42;;;;;;;;;18.00;15.25;;;;;;;;5076764;27;45407;-70
2021/07/26 05:36:08;;;;;;;;;14.75;12.75;;;;;;;;5074029;27;45576;-70
2021/07/26 05:38:33;;;;;;;;;12.25;11.00;;;;;;;;5075498;27;45348;-71
2021/07/26 05:40:59;;;;;;;;;11.50;10.75;;;;;;;;5077749;27;45622;-72
2021/07/26 05:43:24;;;;;;;;;13.25;11.25;;;;;;;;5075934;27;46914;-70
2021/07/26 05:45:49;;;;;;;;;13.75;13.75;;;;;;;;5076815;27;45357;-70
2021/07/26 05:48:14;;;;;;;;;12.25;12.25;;;;;;;;5075394;27;45397;-70
2021/07/26 05:50:40;;;;;;;;;11.00;9.25;;;;;;;;5074134;27;45565;-70
2021/07/26 05:53:05;;;;;;;;;14.50;11.75;;;;;;;;5078355;27;46386;-70
2021/07/26 05:55:31;;;;;;;;;12.25;10.75;;;;;;;;5076387;27;45335;-70
2021/07/26 05:57:57;;;;;;;;;11.50;11.50;;;;;;;;5076203;27;45449;-70
2021/07/26 06:00:35;;;;;;;;;14.75;13.75;;;;;;;;5074811;27;45422;-70
2021/07/26 06:03:01;;;;;;;;;12.00;8.50;;;;;;;;5056050;27;47057;-71
2021/07/26 06:05:26;;;;;;;;;10.25;10.25;;;;;;;;5077318;27;45457;-71
2021/07/26 06:07:52;;;;;;;;;11.75;9.75;;;;;;;;5060133;27;45452;-69
2021/07/26 06:10:17;;;;;;;;;16.75;14.00;;;;;;;;5075337;27;45529;-70
2021/07/26 06:12:43;;;;;;;;;14.50;12.00;;;;;;;;5075348;27;46078;-70
2021/07/26 06:15:09;;;;;;;;;11.25;10.25;;;;;;;;5071360;27;45389;-70
2021/07/26 06:17:34;;;;;;;;;14.25;12.25;;;;;;;;5073368;27;45296;-69
2021/07/26 06:19:59;;;;;;;;;15.25;13.00;;;;;;;;5075337;27;45520;-70
2021/07/26 06:22:24;;;;;;;;;13.00;11.00;;;;;;;;5077108;27;46229;-71
2021/07/26 06:24:49;;;;;;;;;13.25;11.75;;;;;;;;5078817;27;45302;-70
2021/07/26 06:27:15;;;;;;;;;16.75;14.75;;;;;;;;5077093;27;45534;-71
2021/07/26 06:29:40;;;;;;;;;15.25;12.25;;;;;;;;5075905;27;45424;-71
2021/07/26 06:32:06;;;;;;;;;18.00;15.75;;;;;;;;5079390;27;47134;-71
2021/07/26 06:34:31;;;;;;;;;18.00;14.00;;;;;;;;5079082;27;45417;-71
2021/07/26 06:36:56;;;;;;;;;13.25;11.50;;;;;;;;5079338;27;45455;-70
2021/07/26 06:39:22;;;;;;;;;17.25;12.00;;;;;;;;5076677;27;45449;-72
2021/07/26 06:41:47;;;;;;;;;8.25;7.75;;;;;;;;5074980;27;46092;-71
2021/07/26 06:44:12;;;;;;;;;15.50;13.50;;;;;;;;5079751;27;45350;-70
2021/07/26 06:46:38;;;;;;;;;14.75;11.75;;;;;;;;5078643;27;45404;-71
2021/07/26 06:49:03;;;;;;;;;14.25;14.00;;;;;;;;5079183;27;45452;-70
2021/07/26 06:51:29;;;;;;;;;16.50;14.25;;;;;;;;5078212;27;46282;-72
2021/07/26 06:53:54;;;;;;;;;12.50;11.75;;;;;;;;5074303;27;45481;-71
2021/07/26 06:56:19;;;;;;;;;10.50;10.50;;;;;;;;5081066;27;45422;-71
2021/07/26 06:58:44;;;;;;;;;10.75;9.75;;;;;;;;5078709;27;45319;-70
2021/07/26 07:01:14;;;;;;;;;13.00;12.00;;;;;;;;5078912;27;45350;-71
2021/07/26 07:03:40;;;;;;;;;15.50;12.00;;;;;;;;5078359;27;45433;-71
2021/07/26 07:06:09;;;;;;;;;14.75;13.25;;;;;;;;5075380;27;45293;-70
2021/07/26 07:08:36;;;;;;;;;23.00;19.50;;;;;;;;5077591;27;45323;-70
2021/07/26 07:11:05;;;;;;;;;21.25;18.50;;;;;;;;5079342;27;45582;-71
2021/07/26 07:13:31;;;;;;;;;20.00;13.75;;;;;;;;5077793;27;45366;-71
2021/07/26 07:15:56;;;;;;;;;12.00;11.75;;;;;;;;5078089;27;45270;-70
2021/07/26 07:18:21;;;;;;;;;13.75;12.75;;;;;;;;5076224;27;45379;-70
2021/07/26 07:20:46;;;;;;;;;14.50;12.50;;;;;;;;5074021;27;45470;-70
2021/07/26 07:23:11;;;;;;;;;12.25;12.00;;;;;;;;5078750;27;45822;-69
2021/07/26 07:25:37;;;;;;;;;9.50;8.00;;;;;;;;5078163;27;45452;-71
2021/07/26 07:28:02;;;;;;;;;12.50;11.00;;;;;;;;5078536;27;45507;-70
2021/07/26 07:30:27;;;;;;;;;15.00;13.00;;;;;;;;5078446;27;46516;-70
2021/07/26 07:32:52;;;;;;;;;12.00;11.25;;;;;;;;5057221;28;45597;-71
2021/07/26 07:35:17;;;;;;;;;13.50;11.00;;;;;;;;5079177;27;45416;-69
2021/07/26 07:37:43;;;;;;;;;13.75;12.25;;;;;;;;5078209;27;45324;-70
2021/07/26 07:40:08;;;;;;;;;13.00;13.00;;;;;;;;5077747;27;46344;-69
2021/07/26 07:42:33;;;;;;;;;16.25;14.25;;;;;;;;5078383;27;45444;-70
2021/07/26 07:44:59;;;;;;;;;16.00;13.25;;;;;;;;5074398;27;45473;-71
2021/07/26 07:47:24;;;;;;;;;19.50;15.75;;;;;;;;5079754;27;45640;-71
2021/07/26 07:49:49;;;;;;;;;14.75;13.00;;;;;;;;5077578;27;46567;-71
2021/07/26 07:52:14;;;;;;;;;16.00;15.75;;;;;;;;5078135;27;45410;-70
2021/07/26 07:54:40;;;;;;;;;18.25;16.25;;;;;;;;5077858;27;45370;-70
2021/07/26 07:57:05;;;;;;;;;22.50;19.00;;;;;;;;5073248;27;45583;-71
2021/07/26 07:59:31;;;;;;;;;18.50;17.50;;;;;;;;5077856;27;47360;-70
2021/07/26 08:01:56;;;;;;;;;10.75;10.75;;;;;;;;5077597;27;45487;-70
2021/07/26 08:04:21;;;;;;;;;18.75;17.25;;;;;;;;5078487;27;45465;-70
2021/07/26 08:06:46;;;;;;;;;17.25;15.75;;;;;;;;5078602;27;45632;-70
2021/07/26 08:09:12;;;;;;;;;21.25;18.00;;;;;;;;5075811;27;46754;-70
2021/07/26 08:11:37;;;;;;;;;17.75;17.25;;;;;;;;5076204;27;45299;-70
2021/07/26 08:14:03;;;;;;;;;22.50;20.50;;;;;;;;5080005;27;45566;-71
2021/07/26 08:16:28;;;;;;;;;21.00;20.00;;;;;;;;5076325;27;45305;-69
2021/07/26 08:18:54;;;;;;;;;16.25;16.00;;;;;;;;5077821;27;46303;-70
2021/07/26 08:21:21;;;;;;;;;19.00;17.50;;;;;;;;5076626;27;45280;-71
2021/07/26 08:23:46;;;;;;;;;25.75;21.25;;;;;;;;5074535;27;45500;-71
2021/07/26 08:26:12;;;;;;;;;19.75;15.50;;;;;;;;5080129;27;45335;-70
2021/07/26 08:28:37;;;;;;;;;25.00;16.75;;;;;;;;5077105;27;46214;-70
2021/07/26 08:31:03;;;;;;;;;21.75;18.75;;;;;;;;5077588;27;45284;-70
2021/07/26 08:33:28;;;;;;;;;17.00;15.50;;;;;;;;5077949;27;45665;-70
2021/07/26 08:35:54;;;;;;;;;11.00;11.00;;;;;;;;5072518;27;45362;-70
2021/07/26 08:38:19;;;;;;;;;17.50;16.50;;;;;;;;5079666;27;47003;-71
2021/07/26 08:40:45;;;;;;;;;20.25;15.75;;;;;;;;5075741;27;45437;-71
2021/07/26 08:43:12;;;;;;;;;16.50;14.50;;;;;;;;5077015;27;45488;-71
2021/07/26 08:45:38;;;;;;;;;13.00;8.50;;;;;;;;5075445;27;45420;-71
2021/07/26 08:48:05;;;;;;;;;19.75;16.50;;;;;;;;5074289;27;46870;-70
2021/07/26 08:50:31;;;;;;;;;11.75;11.00;;;;;;;;5077290;27;45400;-71
2021/07/26 08:52:57;;;;;;;;;14.25;13.00;;;;;;;;5077808;27;45413;-71
2021/07/26 08:55:23;;;;;;;;;13.25;13.25;;;;;;;;5077194;27;45491;-71
2021/07/26 08:57:49;;;;;;;;;13.75;13.25;;;;;;;;5077017;27;45985;-70
2021/07/26 09:00:15;;;;;;;;;15.00;13.50;;;;;;;;5075054;27;45572;-71
2021/07/26 09:02:40;;;;;;;;;15.75;11.75;;;;;;;;5074689;27;45375;-70
2021/07/26 09:05:07;;;;;;;;;12.75;12.00;;;;;;;;5079365;27;45372;-70
2021/07/26 09:07:35;;;;;;;;;14.25;13.50;;;;;;;;5077339;27;47473;-70
2021/07/26 09:10:09;;;;;;;;;13.00;11.50;;;;;;;;5075981;27;45519;-70
2021/07/26 09:12:36;;;;;;;;;14.50;12.25;;;;;;;;5075730;27;45494;-70
2021/07/26 09:15:02;;;;;;;;;20.25;14.50;;;;;;;;5071970;27;45449;-70
2021/07/26 09:17:44;;;;;;;;;7.75;7.25;;;;;;;;5077414;27;47943;-72
2021/07/26 09:20:09;;;;;;;;;17.75;11.50;;;;;;;;5077232;27;45444;-71
2021/07/26 09:22:36;;;;;;;;;13.00;12.00;;;;;;;;5076483;27;45360;-71
2021/07/26 09:25:21;;;;;;;;;13.75;13.25;;;;;;;;5077130;27;45500;-70
2021/07/26 09:28:01;;;;;;;;;16.50;15.00;;;;;;;;5077012;27;46511;-70
2021/07/26 09:30:27;;;;;;;;;13.75;12.25;;;;;;;;5076178;27;45470;-70
2021/07/26 09:32:52;;;;;;;;;17.50;15.75;;;;;;;;5072817;28;45295;-69
2021/07/26 09:35:22;;;;;;;;;15.75;15.00;;;;;;;;5079308;27;45538;-71
2021/07/26 09:37:55;;;;;;;;;13.75;13.75;;;;;;;;5077106;27;47314;-70
2021/07/26 09:40:23;;;;;;;;;15.50;15.00;;;;;;;;5077203;27;45492;-71
2021/07/26 09:42:51;;;;;;;;;19.75;16.50;;;;;;;;5077022;27;45456;-71
2021/07/26 09:45:17;;;;;;;;;9.25;8.25;;;;;;;;5075254;27;45294;-70
2021/07/26 09:47:42;;;;;;;;;15.25;14.00;;;;;;;;5074207;27;46195;-71
2021/07/26 09:50:08;;;;;;;;;16.00;14.75;;;;;;;;5079147;27;45441;-71
2021/07/26 09:52:33;;;;;;;;;17.50;15.00;;;;;;;;5077000;27;45377;-70
2021/07/26 09:54:59;;;;;;;;;19.75;17.25;;;;;;;;5075356;27;45490;-71
2021/07/26 09:57:24;;;;;;;;;18.50;16.75;;;;;;;;5077455;27;45366;-70
2021/07/26 09:59:50;;;;;;;;;19.75;15.75;;;;;;;;5075789;27;45777;-69
2021/07/26 10:02:17;;;;;;;;;19.00;13.75;;;;;;;;5082380;27;45307;-71
2021/07/26 10:04:43;;;;;;;;;15.50;13.00;;;;;;;;5079745;27;45402;-71
2021/07/26 10:07:08;;;;;;;;;17.25;14.00;;;;;;;;5079517;27;46953;-70
2021/07/26 10:09:34;;;;;;;;;16.50;15.25;;;;;;;;5079790;27;46117;-71
2021/07/26 10:12:01;;;;;;;;;17.75;16.25;;;;;;;;5075904;27;45345;-71
2021/07/26 10:14:26;;;;;;;;;14.00;14.00;;;;;;;;5080271;27;45539;-70
2021/07/26 10:16:52;;;;;;;;;19.00;18.75;;;;;;;;5079841;27;46230;-70
2021/07/26 10:19:17;;;;;;;;;20.25;19.50;;;;;;;;5079266;27;45516;-71
2021/07/26 10:21:43;;;;;;;;;23.50;21.50;;;;;;;;5079775;27;45615;-70
2021/07/26 10:24:08;;;;;;;;;22.50;16.75;;;;;;;;5077118;27;45996;-70
2021/07/26 10:26:35;;;;;;;;;20.25;18.00;;;;;;;;5078539;27;46095;-71
2021/07/26 10:29:01;;;;;;;;;18.00;16.75;;;;;;;;5080055;27;45441;-71
2021/07/26 10:31:30;;;;;;;;;20.75;20.00;;;;;;;;5079211;27;45492;-69
2021/07/26 10:34:04;;;;;;;;;18.75;15.75;;;;;;;;5077573;27;45303;-70
2021/07/26 10:36:45;;;;;;;;;19.00;17.00;;;;;;;;5077139;27;46552;-69
2021/07/26 10:39:10;;;;;;;;;18.50;17.75;;;;;;;;5076347;27;45446;-71
2021/07/26 10:41:42;;;;;;;;;19.75;16.00;;;;;;;;5077348;27;45357;-70
2021/07/26 10:44:07;;;;;;;;;29.00;24.00;;;;;;;;5079291;27;45357;-70
2021/07/26 10:46:52;;;;;;;;;18.25;17.00;;;;;;;;5077752;27;47400;-70
2021/07/26 10:49:17;;;;;;;;;19.50;17.00;;;;;;;;5078597;27;45397;-71
2021/07/26 10:51:45;;;;;;;;;16.75;14.75;;;;;;;;5079023;27;45310;-70
2021/07/26 10:54:29;;;;;;;;;18.50;16.00;;;;;;;;5076976;27;45431;-71
2021/07/26 10:57:01;;;;;;;;;21.25;17.25;;;;;;;;5058476;28;47056;-71
2021/07/26 10:59:27;;;;;;;;;17.75;16.25;;;;;;;;5089111;27;45431;-71
2021/07/26 11:02:02;;;;;;;;;14.75;14.50;;;;;;;;5079303;27;45320;-69
2021/07/26 11:04:45;;;;;;;;;16.50;14.75;;;;;;;;5078984;27;45364;-71
2021/07/26 11:07:11;;;;;;;;;10.25;10.25;;;;;;;;5078460;27;46220;-70
2021/07/26 11:09:36;;;;;;;;;4.00;4.00;;;;;;;;5078196;27;45394;-70
2021/07/26 11:12:02;;;;;;;;;12.75;12.00;;;;;;;;5073789;27;45391;-70
2021/07/26 11:14:28;;;;;;;;;12.50;12.50;;;;;;;;5079639;27;45440;-71
2021/07/26 11:17:02;;;;;;;;;13.00;11.75;;;;;;;;5077169;27;45684;-71
2021/07/26 11:19:30;;;;;;;;;10.50;10.50;;;;;;;;5078560;27;45404;-71
2021/07/26 11:21:56;;;;;;;;;10.75;10.75;;;;;;;;5078883;27;45441;-69
2021/07/26 11:24:39;;;;;;;;;8.67;8.67;;;;;;;;5078280;27;45491;-69
2021/07/26 11:27:04;;;;;;;;;10.00;9.00;;;;;;;;5060597;27;46729;-70
2021/07/26 11:29:30;;;;;;;;;12.25;11.00;;;;;;;;5078690;27;45346;-70
2021/07/26 11:31:58;;;;;;;;;13.00;10.00;;;;;;;;5079619;27;45589;-70
2021/07/26 11:34:28;;;;;;;;;9.00;9.00;;;;;;;;5077219;27;45412;-71
2021/07/26 11:37:07;;;;;;;;;9.67;8.00;;;;;;;;5078332;27;46172;-70
2021/07/26 11:39:52;;;;;;;;;9.67;9.67;;;;;;;;5077848;27;45352;-70
2021/07/26 11:42:25;;;;;;;;;6.00;6.00;;;;;;;;5076459;27;45317;-70
2021/07/26 11:44:51;;;;;;;;;13.67;10.00;;;;;;;;5074721;27;45368;-71
2021/07/26 11:47:17;;;;;;;;;11.00;10.00;;;;;;;;5080250;27;46191;-72
2021/07/26 11:49:46;;;;;;;;;11.00;9.00;;;;;;;;5078574;27;45302;-70
2021/07/26 11:52:11;;;;;;;;;12.67;9.67;;;;;;;;5077082;27;45505;-71
2021/07/26 11:54:36;;;;;;;;;8.67;7.67;;;;;;;;5076638;27;45464;-70
2021/07/26 11:57:09;;;;;;;;;7.67;7.67;;;;;;;;5074616;27;46919;-71
2021/07/26 11:59:35;;;;;;;;;5.33;4.33;;;;;;;;5077090;27;45373;-70
2021/07/26 12:02:14;;;;;;;;;8.00;8.00;;;;;;;;5079160;27;45493;-70
2021/07/26 12:04:39;;;;;;;;;7.67;6.67;;;;;;;;5078386;27;45352;-70
2021/07/26 12:07:05;;;;;;;;;10.33;7.67;;;;;;;;5077520;27;46119;-71
2021/07/26 12:09:31;;;;;;;;;5.00;5.00;;;;;;;;5077519;27;45860;-70
2021/07/26 12:12:10;;;;;;;;;7.00;5.67;;;;;;;;5073365;27;45402;-70
2021/07/26 12:14:35;;;;;;;;;7.00;7.00;;;;;;;;5076819;27;45312;-71
2021/07/26 12:17:02;;;;;;;;;5.00;4.00;;;;;;;;5077480;27;46555;-70
2021/07/26 12:19:28;;;;;;;;;9.33;8.00;;;;;;;;5075748;27;45501;-71
2021/07/26 12:21:55;;;;;;;;;6.00;6.00;;;;;;;;5076793;27;45460;-70
2021/07/26 12:24:39;;;;;;;;;9.33;9.33;;;;;;;;5075932;27;45487;-71
2021/07/26 12:27:04;;;;;;;;;9.00;7.33;;;;;;;;5059170;27;47067;-70
2021/07/26 12:29:29;;;;;;;;;8.00;7.00;;;;;;;;5077083;27;45309;-72
2021/07/26 12:32:04;;;;;;;;;8.00;7.67;;;;;;;;5076612;27;45485;-70
2021/07/26 12:34:29;;;;;;;;;6.33;6.33;;;;;;;;5075890;27;45586;-70
2021/07/26 12:36:57;;;;;;;;;7.00;6.00;;;;;;;;5077142;27;45226;-71
2021/07/26 12:39:36;;;;;;;;;6.67;6.00;;;;;;;;5076264;27;45223;-71
2021/07/26 12:42:19;;;;;;;;;5.33;5.33;;;;;;;;5059294;27;45476;-71
2021/07/26 12:44:44;;;;;;;;;6.67;6.67;;;;;;;;5073992;27;45508;-71
2021/07/26 12:47:25;;;;;;;;;5.67;5.67;;;;;;;;5079468;27;47148;-71
2021/07/26 12:49:51;;;;;;;;;6.67;6.67;;;;;;;;5077677;27;45417;-71
2021/07/26 12:52:16;;;;;;;;;7.00;7.00;;;;;;;;5076610;27;45276;-71
2021/07/26 12:54:44;;;;;;;;;10.00;8.33;;;;;;;;5076983;27;45373;-71
2021/07/26 12:57:09;;;;;;;;;6.00;6.00;;;;;;;;5074516;27;46068;-70
2021/07/26 12:59:34;;;;;;;;;8.33;8.00;;;;;;;;5075378;27;45635;-70
2021/07/26 13:02:00;;;;;;;;;7.00;7.00;;;;;;;;5078504;27;45586;-70
2021/07/26 13:04:25;;;;;;;;;8.33;8.33;;;;;;;;5077003;27;45607;-69
2021/07/26 13:06:50;;;;;;;;;6.00;6.00;;;;;;;;5075592;27;46527;-70
2021/07/26 13:09:15;;;;;;;;;8.00;7.67;;;;;;;;5074124;27;45414;-71
2021/07/26 13:11:41;;;;;;;;;8.33;8.33;;;;;;;;5074822;27;45329;-69
2021/07/26 13:14:06;;;;;;;;;7.33;7.33;;;;;;;;5077510;27;45573;-71
2021/07/26 13:16:31;;;;;;;;;7.00;7.00;;;;;;;;5076843;27;46316;-71
2021/07/26 13:18:56;;;;;;;;;8.33;7.00;;;;;;;;5076769;27;45294;-69
2021/07/26 13:21:21;;;;;;;;;5.33;5.33;;;;;;;;5074333;27;45546;-71
2021/07/26 13:23:48;;;;;;;;;6.00;6.00;;;;;;;;5072863;27;45451;-71
2021/07/26 13:26:13;;;;;;;;;6.33;6.33;;;;;;;;5078508;27;46085;-72
2021/07/26 13:28:38;;;;;;;;;6.67;6.67;;;;;;;;5076623;27;45544;-70
2021/07/26 13:31:04;;;;;;;;;6.00;6.00;;;;;;;;5075906;27;45412;-72
2021/07/26 13:33:29;;;;;;;;;10.33;7.67;;;;;;;;5076747;27;45381;-71
2021/07/26 13:35:54;;;;;;;;;10.00;7.33;;;;;;;;5071698;28;46208;-71
2021/07/26 13:38:19;;;;;;;;;5.33;5.33;;;;;;;;5078562;27;45470;-70
2021/07/26 13:40:45;;;;;;;;;7.33;7.33;;;;;;;;5076312;27;45216;-71
2021/07/26 13:43:11;;;;;;;;;8.67;6.67;;;;;;;;5077016;27;45494;-71
2021/07/26 13:45:36;;;;;;;;;9.00;9.00;;;;;;;;5076395;27;45404;-71
2021/07/26 13:48:02;;;;;;;;;10.00;8.67;;;;;;;;5071612;27;45247;-71
2021/07/26 13:50:28;;;;;;;;;12.00;9.33;;;;;;;;5076361;27;45336;-71
2021/07/26 13:52:53;;;;;;;;;9.33;9.33;;;;;;;;5075869;27;45543;-70
2021/07/26 13:55:19;;;;;;;;;11.00;10.00;;;;;;;;5075927;27;45394;-71
2021/07/26 13:57:44;;;;;;;;;7.33;6.67;;;;;;;;5076250;27;45453;-71
2021/07/26 14:00:10;;;;;;;;;11.25;11.25;;;;;;;;5074103;27;45461;-71
2021/07/26 14:02:35;;;;;;;;;9.00;9.00;;;;;;;;5074868;27;45450;-72
2021/07/26 14:05:01;;;;;;;;;8.25;8.25;;;;;;;;5077218;27;46944;-70
2021/07/26 14:07:26;;;;;;;;;11.00;11.00;;;;;;;;5075952;27;45412;-71
2021/07/26 14:09:51;;;;;;;;;9.75;9.25;;;;;;;;5075761;27;45479;-71
2021/07/26 14:12:16;;;;;;;;;11.00;11.00;;;;;;;;5074562;27;45393;-70
2021/07/26 14:14:42;;;;;;;;;11.50;11.50;;;;;;;;5072994;27;46386;-71
2021/07/26 14:17:08;;;;;;;;;13.50;12.25;;;;;;;;5077902;27;45620;-72
2021/07/26 14:19:33;;;;;;;;;10.00;8.25;;;;;;;;5075591;27;45512;-72